Time;durP1;ratioP1;P1;durP2;ratioP2;P2;SDS_P1;SDS_P2;PMS_P1;PMS_P2;Temp;Humidity;BMP_temperature;BMP_pressure;BME280_temperature;BME280_humidity;BME280_pressure;Samples;Min_cycle;Max_cycle;Signal;HPM_P1;HPM_P2
2021/12/25 00:01:06;;;;;;;16.42;6.40;;;8.10;99.90;;;;;;5000725;28;20488;-51
2021/12/25 00:03:33;;;;;;;16.17;7.13;;;8.10;99.90;;;;;;4999388;28;20030;-50
2021/12/25 00:05:59;;;;;;;17.05;6.15;;;8.10;99.90;;;;;;5001575;28;20022;-50
2021/12/25 00:08:26;;;;;;;10.98;5.20;;;8.10;99.90;;;;;;5002478;28;20389;-49
2021/12/25 00:10:53;;;;;;;10.90;5.38;;;8.10;99.90;;;;;;4999434;28;20108;-50
2021/12/25 00:13:20;;;;;;;11.88;6.70;;;8.10;99.90;;;;;;5000104;28;20030;-50
2021/12/25 00:15:49;;;;;;;11.35;5.32;;;8.10;99.90;;;;;;5001290;28;20034;-50
2021/12/25 00:18:16;;;;;;;11.27;6.17;;;8.10;99.90;;;;;;5003975;28;20464;-50
2021/12/25 00:20:42;;;;;;;11.35;6.55;;;8.10;99.90;;;;;;4998101;28;20468;-50
2021/12/25 00:23:08;;;;;;;14.90;6.13;;;8.10;99.90;;;;;;5001302;28;20472;-50
2021/12/25 00:25:39;;;;;;;11.93;5.43;;;8.10;99.90;;;;;;5000025;28;20022;-49
2021/12/25 00:30:43;;;;;;;15.55;7.65;;;8.10;99.90;;;;;;5004882;28;20034;-50
2021/12/25 00:35:53;;;;;;;12.00;5.90;;;8.10;99.90;;;;;;5003045;28;20169;-50
2021/12/25 00:38:19;;;;;;;14.02;6.65;;;8.10;99.90;;;;;;5006450;28;20109;-50
2021/12/25 00:40:45;;;;;;;14.18;6.53;;;8.10;99.90;;;;;;5006120;28;20064;-50
2021/12/25 00:43:10;;;;;;;16.05;6.93;;;8.10;99.90;;;;;;5002995;28;20032;-50
2021/12/25 00:45:36;;;;;;;10.40;5.53;;;8.10;99.90;;;;;;5004162;28;20122;-50
2021/12/25 00:48:01;;;;;;;10.88;5.82;;;8.10;99.90;;;;;;5002433;28;20442;-50
2021/12/25 00:50:27;;;;;;;12.88;5.10;;;8.10;99.90;;;;;;5002792;28;20030;-50
2021/12/25 00:52:53;;;;;;;11.90;6.22;;;8.10;99.90;;;;;;5003992;28;20622;-50
2021/12/25 00:55:18;;;;;;;13.18;7.00;;;8.10;99.90;;;;;;5002973;28;20449;-50
2021/12/25 00:57:44;;;;;;;11.90;6.18;;;8.10;99.90;;;;;;5004772;28;20408;-50
2021/12/25 01:00:12;;;;;;;10.65;4.57;;;8.10;99.90;;;;;;5007558;28;20028;-50
2021/12/25 01:02:42;;;;;;;31.08;7.47;;;8.10;99.90;;;;;;5001322;28;20049;-49
2021/12/25 01:05:09;;;;;;;11.90;5.53;;;8.10;99.90;;;;;;5003520;28;20385;-50
2021/12/25 01:07:35;;;;;;;13.63;6.88;;;8.10;99.90;;;;;;5005290;28;20056;-50
2021/12/25 01:10:03;;;;;;;14.02;6.75;;;8.10;99.90;;;;;;5003136;28;20035;-50
2021/12/25 01:12:35;;;;;;;15.63;6.43;;;8.10;99.90;;;;;;5001560;28;20452;-49
2021/12/25 01:15:04;;;;;;;15.50;6.45;;;8.10;99.90;;;;;;5003611;28;20054;-49
2021/12/25 01:20:21;;;;;;;15.93;6.45;;;8.10;99.90;;;;;;5004601;28;20018;-50
2021/12/25 01:30:52;;;;;;;13.25;5.65;;;8.10;99.90;;;;;;5002478;28;20025;-50
2021/12/25 01:49:25;;;;;;;13.73;7.25;;;8.10;99.90;;;;;;5001938;28;20053;-50
2021/12/25 01:51:50;;;;;;;16.33;6.80;;;8.10;99.90;;;;;;5002659;28;20457;-49
2021/12/25 01:54:16;;;;;;;11.43;6.28;;;8.10;99.90;;;;;;5005640;28;20022;-50
2021/12/25 01:56:42;;;;;;;12.70;6.32;;;8.10;99.90;;;;;;5004292;28;20034;-50
2021/12/25 01:59:08;;;;;;;12.70;5.65;;;8.10;99.90;;;;;;5002458;28;20335;-50
2021/12/25 02:01:34;;;;;;;15.00;7.30;;;8.10;99.90;;;;;;4999072;28;20270;-50
2021/12/25 02:03:59;;;;;;;12.23;6.47;;;8.10;99.90;;;;;;5006183;28;20068;-50
2021/12/25 02:06:25;;;;;;;15.68;6.78;;;8.10;99.90;;;;;;5002658;28;20056;-50
2021/12/25 02:08:51;;;;;;;10.98;5.78;;;8.10;99.90;;;;;;5003869;28;20068;-50
2021/12/25 02:11:17;;;;;;;12.50;5.93;;;8.10;99.90;;;;;;5001218;28;20030;-50
2021/12/25 02:13:43;;;;;;;13.40;6.15;;;8.10;99.90;;;;;;5002219;28;20108;-50
2021/12/25 02:16:16;;;;;;;15.68;7.22;;;8.10;99.90;;;;;;5000335;28;20037;-50
2021/12/25 02:21:30;;;;;;;17.30;7.40;;;8.10;99.90;;;;;;5001944;28;20457;-50
2021/12/25 02:23:57;;;;;;;12.68;6.65;;;8.10;99.90;;;;;;5001350;28;20033;-50
2021/12/25 02:26:24;;;;;;;13.85;6.32;;;8.10;99.90;;;;;;4999916;28;20138;-50
2021/12/25 02:28:50;;;;;;;12.68;6.32;;;8.10;99.90;;;;;;5004060;28;20034;-50
2021/12/25 02:31:17;;;;;;;12.07;5.78;;;8.10;99.90;;;;;;5001014;28;20030;-50
2021/12/25 02:33:43;;;;;;;13.65;6.28;;;8.10;99.90;;;;;;5001422;28;20042;-50
2021/12/25 02:36:11;;;;;;;12.50;6.13;;;8.10;99.90;;;;;;5006768;28;20038;-50
2021/12/25 02:38:37;;;;;;;10.57;5.53;;;8.10;99.90;;;;;;5000707;28;20018;-50
2021/12/25 02:41:04;;;;;;;11.43;6.00;;;8.10;99.90;;;;;;4999566;28;20066;-50
2021/12/25 02:43:30;;;;;;;10.00;5.05;;;8.10;99.90;;;;;;5007093;28;20025;-50
2021/12/25 02:46:01;;;;;;;16.00;5.50;;;8.20;99.90;;;;;;5002983;28;20034;-50
2021/12/25 02:48:27;;;;;;;12.25;5.10;;;8.20;99.90;;;;;;5004161;28;20434;-50
2021/12/25 02:50:53;;;;;;;14.27;6.47;;;8.20;99.90;;;;;;5001019;28;20033;-50
2021/12/25 02:53:18;;;;;;;13.57;5.80;;;8.20;99.90;;;;;;5002448;28;20026;-50
2021/12/25 02:55:46;;;;;;;13.40;6.47;;;8.10;99.90;;;;;;5004811;28;20467;-50
2021/12/25 02:58:13;;;;;;;17.75;6.68;;;8.10;99.90;;;;;;4999536;28;20034;-50
2021/12/25 03:00:43;;;;;;;11.57;5.47;;;8.10;99.90;;;;;;5002738;28;20022;-50
2021/12/25 03:03:09;;;;;;;14.13;5.22;;;8.10;99.90;;;;;;4999327;28;20387;-50
2021/12/25 03:05:36;;;;;;;13.75;6.13;;;8.10;99.90;;;;;;4998451;28;20057;-50
2021/12/25 03:08:04;;;;;;;11.20;5.38;;;8.20;99.90;;;;;;5001323;28;20061;-50
2021/12/25 03:10:33;;;;;;;15.32;5.93;;;8.20;99.90;;;;;;5005170;28;20966;-50
2021/12/25 03:13:19;;;;;;;15.48;6.47;;;8.20;99.90;;;;;;5002939;28;20088;-50
2021/12/25 03:15:47;;;;;;;16.33;6.25;;;8.20;99.90;;;;;;5003473;28;20054;-50
2021/12/25 03:18:26;;;;;;;13.60;6.30;;;8.20;99.90;;;;;;5000821;28;20034;-50
2021/12/25 03:20:56;;;;;;;11.70;7.05;;;8.20;99.90;;;;;;5001659;28;20077;-50
2021/12/25 03:23:24;;;;;;;13.98;6.97;;;8.20;99.90;;;;;;4999594;28;20096;-50
2021/12/25 03:25:51;;;;;;;18.08;6.43;;;8.20;99.90;;;;;;5001270;28;20396;-50
2021/12/25 03:28:19;;;;;;;17.95;7.30;;;8.20;99.90;;;;;;4998172;28;20420;-50
2021/12/25 03:30:45;;;;;;;17.00;6.63;;;8.20;99.90;;;;;;5002230;28;20044;-50
2021/12/25 03:33:14;;;;;;;11.55;6.00;;;8.10;99.90;;;;;;5000605;28;20061;-50
2021/12/25 03:35:41;;;;;;;12.95;5.88;;;8.20;99.90;;;;;;4999960;28;20113;-50
2021/12/25 03:38:09;;;;;;;11.65;5.25;;;8.20;99.90;;;;;;5004857;28;20026;-49
2021/12/25 03:40:35;;;;;;;12.38;4.90;;;8.20;99.90;;;;;;5002612;28;20048;-50
2021/12/25 03:43:01;;;;;;;11.80;5.78;;;8.20;99.90;;;;;;4994001;28;20034;-50
2021/12/25 03:45:30;;;;;;;14.20;6.45;;;8.20;99.90;;;;;;5005947;28;20479;-49
2021/12/25 03:48:07;;;;;;;11.43;5.68;;;8.20;99.90;;;;;;4996823;28;20038;-50
2021/12/25 03:58:53;;;;;;;11.25;4.97;;;8.20;99.90;;;;;;5003490;28;20369;-50
2021/12/25 04:01:43;;;;;;;13.75;5.70;;;8.20;99.90;;;;;;4999913;28;20034;-50
2021/12/25 04:06:52;;;;;;;15.75;6.05;;;8.20;99.90;;;;;;5004350;28;20116;-50
2021/12/25 04:09:29;;;;;;;11.02;6.10;;;8.20;99.90;;;;;;5003665;28;20034;-50
2021/12/25 04:11:57;;;;;;;13.45;5.32;;;8.20;99.90;;;;;;5003156;28;20381;-50
2021/12/25 04:14:23;;;;;;;10.65;5.55;;;8.20;99.90;;;;;;5005009;28;20026;-50
2021/12/25 04:16:49;;;;;;;10.75;5.47;;;8.20;99.90;;;;;;5005215;28;20088;-50
2021/12/25 04:19:16;;;;;;;12.02;5.80;;;8.20;99.90;;;;;;5002099;28;20034;-50
2021/12/25 04:21:51;;;;;;;14.75;5.70;;;8.20;99.90;;;;;;5004068;28;20113;-50
2021/12/25 04:24:17;;;;;;;15.07;5.97;;;8.20;99.90;;;;;;5003995;28;20101;-50
2021/12/25 04:26:44;;;;;;;11.45;5.47;;;8.20;99.90;;;;;;5004281;28;20393;-51
2021/12/25 05:04:39;;;;;;;17.17;7.47;;;8.20;99.90;;;;;;5001661;28;20100;-50
2021/12/25 05:07:05;;;;;;;17.30;6.85;;;8.20;99.90;;;;;;5003970;28;20517;-50
2021/12/25 05:09:31;;;;;;;23.75;7.15;;;8.20;99.90;;;;;;5002417;28;20034;-50
2021/12/25 05:11:57;;;;;;;15.85;5.97;;;8.20;99.90;;;;;;5004874;28;20463;-50
2021/12/25 05:14:22;;;;;;;14.00;6.88;;;8.20;99.90;;;;;;5005104;28;20581;-50
2021/12/25 05:16:48;;;;;;;16.30;8.18;;;8.20;99.90;;;;;;5002839;28;20042;-50
2021/12/25 05:19:14;;;;;;;17.70;8.23;;;8.20;99.90;;;;;;5004183;28;20026;-50
2021/12/25 05:21:40;;;;;;;19.63;8.63;;;8.20;99.90;;;;;;5003288;28;20068;-50
2021/12/25 05:24:06;;;;;;;12.18;5.63;;;8.20;99.90;;;;;;5001721;28;20033;-50
2021/12/25 05:26:32;;;;;;;15.10;7.10;;;8.20;99.90;;;;;;5003002;28;20493;-50
2021/12/25 05:29:00;;;;;;;12.73;6.88;;;8.20;99.90;;;;;;5001422;28;20449;-50
2021/12/25 05:31:28;;;;;;;15.18;7.32;;;8.20;99.90;;;;;;5003789;28;20346;-50
2021/12/25 05:33:54;;;;;;;16.83;6.20;;;8.20;99.90;;;;;;5006702;28;20052;-50
2021/12/25 05:36:20;;;;;;;18.17;6.45;;;8.20;99.90;;;;;;5001842;28;20092;-50
2021/12/25 05:38:46;;;;;;;19.30;7.10;;;8.20;99.90;;;;;;5003875;28;20026;-51
2021/12/25 05:41:12;;;;;;;15.18;7.13;;;8.20;99.90;;;;;;5003395;28;20361;-50
2021/12/25 05:43:38;;;;;;;11.00;6.13;;;8.20;99.90;;;;;;5001961;28;20057;-50
2021/12/25 05:46:04;;;;;;;16.80;7.90;;;8.20;99.90;;;;;;5001938;28;20386;-50
2021/12/25 05:48:35;;;;;;;13.60;7.18;;;8.20;99.90;;;;;;5001574;28;20143;-51
2021/12/25 05:51:02;;;;;;;10.70;5.75;;;8.20;99.90;;;;;;5002598;28;20064;-50
2021/12/25 05:53:27;;;;;;;12.10;6.55;;;8.20;99.90;;;;;;5001317;28;20037;-50
2021/12/25 05:55:53;;;;;;;10.48;5.72;;;8.20;99.90;;;;;;5003926;28;20027;-50
2021/12/25 05:58:19;;;;;;;19.13;8.05;;;8.20;99.90;;;;;;5003344;28;20030;-50
2021/12/25 06:00:44;;;;;;;18.02;6.80;;;8.20;99.90;;;;;;5003819;28;20073;-50
2021/12/25 06:03:10;;;;;;;15.07;7.13;;;8.20;99.90;;;;;;4997627;28;20381;-50
2021/12/25 06:05:36;;;;;;;13.77;6.65;;;8.20;99.90;;;;;;5003139;28;20033;-50
2021/12/25 06:08:02;;;;;;;11.52;5.65;;;8.20;99.90;;;;;;5000101;28;20058;-51
2021/12/25 06:10:28;;;;;;;15.75;5.80;;;8.20;99.90;;;;;;5003817;28;20034;-50
2021/12/25 06:12:55;;;;;;;14.13;5.15;;;8.20;99.90;;;;;;5001848;28;20034;-50
2021/12/25 06:15:21;;;;;;;14.68;6.65;;;8.20;99.90;;;;;;5001263;28;20034;-50
2021/12/25 06:17:47;;;;;;;10.63;5.05;;;8.20;99.90;;;;;;5004967;28;20038;-49
2021/12/25 06:20:13;;;;;;;17.55;7.60;;;8.20;99.90;;;;;;5004438;28;20026;-50
2021/12/25 06:22:39;;;;;;;15.05;5.97;;;8.20;99.90;;;;;;5003686;28;20030;-50
2021/12/25 06:25:06;;;;;;;14.73;6.13;;;8.20;99.90;;;;;;4999681;28;20062;-50
2021/12/25 06:27:32;;;;;;;15.02;7.07;;;8.20;99.90;;;;;;5000126;28;20034;-50
2021/12/25 06:29:58;;;;;;;13.88;7.43;;;8.20;99.90;;;;;;5004400;28;20029;-50
2021/12/25 06:32:24;;;;;;;11.40;6.40;;;8.20;99.90;;;;;;5002325;28;20053;-50
2021/12/25 06:34:50;;;;;;;14.98;6.43;;;8.20;99.90;;;;;;5001760;28;20064;-50
2021/12/25 06:37:17;;;;;;;11.73;5.20;;;8.20;99.90;;;;;;5003660;28;20056;-50
2021/12/25 06:39:43;;;;;;;12.10;5.93;;;8.20;99.90;;;;;;5004529;28;20029;-50
2021/12/25 06:42:10;;;;;;;23.13;7.55;;;8.20;99.90;;;;;;5000421;28;20053;-50
2021/12/25 06:44:36;;;;;;;13.00;4.65;;;8.20;99.90;;;;;;5002709;28;20033;-50
2021/12/25 06:47:02;;;;;;;11.00;4.70;;;8.20;99.90;;;;;;5002551;28;20069;-50
2021/12/25 06:49:28;;;;;;;13.82;5.43;;;8.20;99.90;;;;;;4999967;28;20058;-49
2021/12/25 06:51:54;;;;;;;17.58;7.30;;;8.20;99.90;;;;;;5001886;28;20088;-50
2021/12/25 06:54:20;;;;;;;13.82;6.90;;;8.20;99.90;;;;;;5002326;28;20026;-50
2021/12/25 06:56:48;;;;;;;13.98;6.28;;;8.20;99.90;;;;;;5001007;28;20072;-50
2021/12/25 06:59:14;;;;;;;17.70;7.80;;;8.20;99.90;;;;;;4999927;28;20031;-50
2021/12/25 07:01:41;;;;;;;13.15;6.32;;;8.20;99.90;;;;;;4999883;28;20140;-50
2021/12/25 07:04:07;;;;;;;16.70;7.25;;;8.20;99.90;;;;;;5002347;28;20393;-50
2021/12/25 07:06:34;;;;;;;18.00;7.68;;;8.20;99.90;;;;;;5002190;28;20032;-50
2021/12/25 07:09:00;;;;;;;12.65;6.75;;;8.20;99.90;;;;;;5000431;28;20023;-50
2021/12/25 07:11:26;;;;;;;16.13;7.65;;;8.20;99.90;;;;;;5003174;28;20027;-50
2021/12/25 07:13:52;;;;;;;12.88;7.28;;;8.20;99.90;;;;;;5000746;28;20031;-50
2021/12/25 07:16:19;;;;;;;14.75;6.50;;;8.20;99.90;;;;;;5002742;28;20392;-50
2021/12/25 07:18:46;;;;;;;15.45;7.60;;;8.20;99.90;;;;;;5000823;28;20155;-50
2021/12/25 07:21:12;;;;;;;14.75;7.25;;;8.20;99.90;;;;;;5007628;28;20434;-50
2021/12/25 07:23:38;;;;;;;14.15;6.20;;;8.20;99.90;;;;;;5009779;28;20076;-51
2021/12/25 07:26:04;;;;;;;17.30;7.75;;;8.20;99.90;;;;;;5008158;28;20100;-50
2021/12/25 07:28:30;;;;;;;16.70;6.65;;;8.20;99.90;;;;;;5006082;28;20034;-50
2021/12/25 07:31:00;;;;;;;14.30;6.68;;;8.20;99.90;;;;;;5003791;28;20100;-50
2021/12/25 07:33:27;;;;;;;10.50;4.67;;;8.20;99.90;;;;;;4999083;28;20465;-50
2021/12/25 07:35:53;;;;;;;14.07;6.60;;;8.20;99.90;;;;;;4999610;28;20282;-50
2021/12/25 07:38:20;;;;;;;18.95;6.95;;;8.20;99.90;;;;;;5001012;28;20050;-50
2021/12/25 07:40:46;;;;;;;13.70;6.43;;;8.20;99.90;;;;;;5002351;28;20022;-50
2021/12/25 07:43:11;;;;;;;15.25;6.53;;;8.20;99.90;;;;;;5000615;28;20045;-50
2021/12/25 07:45:37;;;;;;;15.50;8.00;;;8.20;99.90;;;;;;5000412;28;20113;-51
2021/12/25 07:48:03;;;;;;;11.88;5.68;;;8.20;99.90;;;;;;5002352;28;20064;-50
2021/12/25 07:50:34;;;;;;;16.52;7.18;;;8.20;99.90;;;;;;4999214;28;20066;-50
2021/12/25 07:53:00;;;;;;;18.27;6.55;;;8.20;99.90;;;;;;5001551;28;20034;-50
2021/12/25 07:55:31;;;;;;;16.33;6.90;;;8.20;99.90;;;;;;5002101;28;20022;-50
2021/12/25 07:57:58;;;;;;;17.95;6.53;;;8.20;99.90;;;;;;5002517;28;20041;-50
2021/12/25 08:00:24;;;;;;;12.80;5.93;;;8.20;99.90;;;;;;4999401;28;20372;-51
2021/12/25 08:02:50;;;;;;;9.68;5.13;;;8.20;99.90;;;;;;5001021;28;20466;-49
2021/12/25 08:05:16;;;;;;;13.70;6.22;;;8.20;99.90;;;;;;4999404;28;20160;-49
2021/12/25 08:07:42;;;;;;;12.68;5.97;;;8.20;99.90;;;;;;5000374;28;20516;-50
2021/12/25 08:10:17;;;;;;;19.35;6.80;;;8.20;99.90;;;;;;5000298;28;20050;-50
2021/12/25 08:12:54;;;;;;;24.50;7.07;;;8.20;99.90;;;;;;5000025;28;20022;-50
2021/12/25 08:15:23;;;;;;;13.80;5.88;;;8.20;99.90;;;;;;5002360;28;20515;-50
2021/12/25 08:17:49;;;;;;;11.60;5.55;;;8.20;99.90;;;;;;5000923;28;20333;-49
2021/12/25 08:20:15;;;;;;;16.35;6.18;;;8.30;99.90;;;;;;4998575;28;20023;-50
2021/12/25 08:22:41;;;;;;;11.82;5.45;;;8.20;99.90;;;;;;5001243;28;20032;-50
2021/12/25 08:25:09;;;;;;;12.35;5.65;;;8.30;99.90;;;;;;5000937;28;20056;-50
2021/12/25 08:27:35;;;;;;;18.02;5.47;;;8.20;99.90;;;;;;4999011;28;20126;-50
2021/12/25 08:30:03;;;;;;;14.70;6.05;;;8.30;99.90;;;;;;5001069;28;20076;-49
2021/12/25 08:32:29;;;;;;;14.48;5.95;;;8.20;99.90;;;;;;5001008;28;20416;-50
2021/12/25 08:34:54;;;;;;;12.95;5.07;;;8.20;99.90;;;;;;4999732;28;20057;-50
2021/12/25 08:37:23;;;;;;;12.98;6.30;;;8.20;99.90;;;;;;4998550;28;20112;-50
2021/12/25 08:39:50;;;;;;;15.07;5.50;;;8.30;99.90;;;;;;5002052;28;20053;-50
2021/12/25 08:42:16;;;;;;;11.13;5.78;;;8.20;99.90;;;;;;4999100;28;20027;-50
2021/12/25 08:45:04;;;;;;;10.15;5.90;;;8.20;99.90;;;;;;4999469;28;20112;-50
2021/12/25 08:47:30;;;;;;;13.93;6.47;;;8.20;99.90;;;;;;5001596;28;20349;-50
2021/12/25 08:49:55;;;;;;;18.08;6.85;;;8.20;99.90;;;;;;5001317;28;20498;-49
2021/12/25 08:52:23;;;;;;;13.57;6.18;;;8.30;99.90;;;;;;5003990;28;20049;-50
2021/12/25 08:54:49;;;;;;;13.05;5.63;;;8.20;99.90;;;;;;5002695;28;20334;-50
2021/12/25 08:57:17;;;;;;;9.52;4.88;;;8.20;99.90;;;;;;5006012;28;20038;-50
2021/12/25 08:59:42;;;;;;;9.80;5.07;;;8.30;99.90;;;;;;5003044;28;20022;-50
2021/12/25 09:02:12;;;;;;;12.93;5.97;;;8.20;99.90;;;;;;5004169;28;20026;-50
2021/12/25 09:04:40;;;;;;;12.52;5.80;;;8.30;99.90;;;;;;5001787;28;20026;-50
2021/12/25 09:07:07;;;;;;;12.43;5.35;;;8.30;99.90;;;;;;5008297;28;20112;-49
2021/12/25 09:09:34;;;;;;;14.57;6.53;;;8.20;99.90;;;;;;5003892;28;20323;-50
2021/12/25 09:12:00;;;;;;;9.63;5.22;;;8.20;99.90;;;;;;5002214;28;20034;-50
2021/12/25 09:14:26;;;;;;;13.32;5.00;;;8.30;99.90;;;;;;5004661;28;20057;-49
2021/12/25 09:16:52;;;;;;;15.25;5.80;;;8.20;99.90;;;;;;5003834;28;20034;-50
2021/12/25 09:19:18;;;;;;;9.52;5.40;;;8.30;99.90;;;;;;5002003;28;20025;-50
2021/12/25 09:21:43;;;;;;;8.13;5.03;;;8.30;99.90;;;;;;5001401;28;20034;-50
2021/12/25 09:24:09;;;;;;;10.13;5.18;;;8.30;99.90;;;;;;5003447;28;20022;-50
2021/12/25 09:26:35;;;;;;;12.05;5.97;;;8.30;99.90;;;;;;5004838;28;20053;-50
2021/12/25 09:29:00;;;;;;;11.55;5.18;;;8.30;99.90;;;;;;5006375;28;20089;-50
2021/12/25 09:31:26;;;;;;;10.35;5.38;;;8.30;99.90;;;;;;5001683;28;20369;-50
2021/12/25 09:33:53;;;;;;;10.82;5.45;;;8.30;99.90;;;;;;5004782;28;20069;-50
2021/12/25 09:36:19;;;;;;;13.90;5.72;;;8.30;99.90;;;;;;5002347;28;20070;-50
2021/12/25 09:38:45;;;;;;;10.60;5.13;;;8.30;99.90;;;;;;5003498;28;20034;-49
2021/12/25 09:41:12;;;;;;;11.02;5.10;;;8.30;99.90;;;;;;5001903;28;20042;-50
2021/12/25 09:43:39;;;;;;;13.35;5.63;;;8.30;99.90;;;;;;5002803;28;20028;-50
2021/12/25 09:46:05;;;;;;;13.70;5.50;;;8.30;99.90;;;;;;5004014;28;20022;-50
2021/12/25 09:48:33;;;;;;;13.60;5.88;;;8.30;99.90;;;;;;5002661;28;20031;-50
2021/12/25 09:50:59;;;;;;;12.80;5.60;;;8.30;99.90;;;;;;5004427;28;20034;-49
2021/12/25 09:53:27;;;;;;;14.80;6.05;;;8.30;99.90;;;;;;5003991;28;20026;-50
2021/12/25 09:55:53;;;;;;;13.25;5.93;;;8.30;99.90;;;;;;5002952;28;20468;-50
2021/12/25 09:58:19;;;;;;;13.38;5.65;;;8.30;99.90;;;;;;5002060;28;20029;-50
2021/12/25 10:00:46;;;;;;;14.05;6.25;;;8.30;99.90;;;;;;5000686;28;20145;-50
2021/12/25 10:03:12;;;;;;;13.80;5.82;;;8.30;99.90;;;;;;5001693;28;20050;-50
2021/12/25 10:05:43;;;;;;;10.20;4.95;;;8.30;99.90;;;;;;5003590;28;20433;-50
2021/12/25 10:08:18;;;;;;;9.77;5.47;;;8.30;99.90;;;;;;5003518;28;20065;-50
2021/12/25 10:10:48;;;;;;;12.63;5.68;;;8.30;99.90;;;;;;5005415;28;20564;-50
2021/12/25 10:13:29;;;;;;;11.10;5.68;;;8.30;99.90;;;;;;5006178;28;20025;-50
2021/12/25 10:16:00;;;;;;;9.23;5.05;;;8.40;99.90;;;;;;5009059;28;20087;-50
2021/12/25 10:18:31;;;;;;;9.23;4.82;;;8.30;99.90;;;;;;5009108;28;20033;-50
2021/12/25 10:21:15;;;;;;;11.30;4.60;;;8.40;99.90;;;;;;5006729;28;20539;-50
2021/12/25 10:23:41;;;;;;;10.45;4.20;;;8.30;99.90;;;;;;5010062;28;20469;-48
2021/12/25 10:26:06;;;;;;;8.65;4.20;;;8.40;99.90;;;;;;5002894;28;20042;-48
2021/12/25 10:28:38;;;;;;;11.13;5.40;;;8.40;99.90;;;;;;4997635;28;20101;-50
2021/12/25 10:31:16;;;;;;;9.25;5.03;;;8.30;99.90;;;;;;5003062;28;20084;-49
2021/12/25 10:33:53;;;;;;;17.60;5.50;;;8.40;99.90;;;;;;5007468;28;20116;-50
2021/12/25 10:36:24;;;;;;;6.18;3.40;;;8.40;99.90;;;;;;5001763;28;20080;-52
2021/12/25 10:39:08;;;;;;;10.02;4.78;;;8.40;99.90;;;;;;5004051;28;20500;-50
2021/12/25 10:41:37;;;;;;;9.68;4.65;;;8.40;99.90;;;;;;4999952;28;20465;-50
2021/12/25 10:44:28;;;;;;;10.02;5.13;;;8.40;99.90;;;;;;5001179;28;20577;-50
2021/12/25 10:47:09;;;;;;;10.63;4.85;;;8.40;99.90;;;;;;5002643;28;20030;-50
2021/12/25 10:49:41;;;;;;;15.38;4.78;;;8.40;99.90;;;;;;5002587;28;20029;-50
2021/12/25 10:52:13;;;;;;;12.32;4.60;;;8.40;99.90;;;;;;5003273;28;20030;-50
2021/12/25 10:54:43;;;;;;;11.32;5.05;;;8.40;99.90;;;;;;5008064;28;20065;-51
2021/12/25 10:57:09;;;;;;;14.23;5.00;;;8.40;99.90;;;;;;4998210;28;20034;-50
2021/12/25 10:59:46;;;;;;;9.27;4.50;;;8.40;99.90;;;;;;5000627;28;20031;-50
2021/12/25 11:02:31;;;;;;;7.47;3.35;;;8.50;99.90;;;;;;5001602;28;20046;-50
2021/12/25 11:04:58;;;;;;;10.70;2.67;;;8.50;99.90;;;;;;5001923;28;20044;-50
2021/12/25 11:07:25;;;;;;;16.63;4.72;;;8.50;99.90;;;;;;5000484;28;20038;-50
2021/12/25 11:10:11;;;;;;;10.60;4.70;;;8.50;99.90;;;;;;5001996;28;20108;-50
2021/12/25 11:12:38;;;;;;;10.70;5.10;;;8.50;99.90;;;;;;5000486;28;20124;-50
2021/12/25 11:15:21;;;;;;;10.60;4.88;;;8.50;99.90;;;;;;5004999;28;20041;-50
2021/12/25 11:17:51;;;;;;;17.95;5.95;;;8.50;99.90;;;;;;5002695;28;20038;-50
2021/12/25 11:20:27;;;;;;;;;;;8.60;99.90;;;;;;5001569;28;20338;-50
2021/12/25 11:22:55;;;;;;;6.53;4.00;;;8.60;99.90;;;;;;4999143;28;19920;-51
2021/12/25 11:25:27;;;;;;;10.50;3.75;;;8.60;99.90;;;;;;5001187;28;20048;-50
2021/12/25 11:27:54;;;;;;;11.80;5.32;;;8.50;99.90;;;;;;4999905;28;20081;-50
2021/12/25 11:30:22;;;;;;;16.10;5.75;;;8.60;99.90;;;;;;5001209;28;20096;-50
2021/12/25 11:32:49;;;;;;;8.82;4.55;;;8.60;99.90;;;;;;5001983;28;20017;-50
2021/12/25 11:35:18;;;;;;;11.02;4.68;;;8.60;99.90;;;;;;5000821;28;20023;-50
2021/12/25 11:37:46;;;;;;;7.55;3.85;;;8.60;99.90;;;;;;5000122;28;20070;-50
2021/12/25 11:40:13;;;;;;;11.18;5.40;;;8.60;99.90;;;;;;5000455;28;20032;-50
2021/12/25 11:42:46;;;;;;;17.38;5.75;;;8.60;99.90;;;;;;5000014;28;20031;-50
2021/12/25 11:45:23;;;;;;;10.20;5.38;;;8.60;99.90;;;;;;4999962;28;20027;-50
2021/12/25 11:47:51;;;;;;;16.88;6.18;;;8.60;99.90;;;;;;4998612;28;20029;-50
2021/12/25 11:50:21;;;;;;;11.50;5.72;;;8.60;99.90;;;;;;5001426;28;20169;-50
2021/12/25 11:53:04;;;;;;;15.52;5.38;;;8.60;99.90;;;;;;4998949;28;20035;-50
2021/12/25 11:58:37;;;;;;;8.88;4.70;;;8.60;99.90;;;;;;4999625;28;20038;-50
2021/12/25 12:01:24;;;;;;;9.93;5.57;;;8.60;99.90;;;;;;4999556;28;20434;-50
2021/12/25 12:04:04;;;;;;;11.90;5.30;;;8.60;99.90;;;;;;4996409;28;20034;-51
2021/12/25 12:06:45;;;;;;;12.00;4.82;;;8.60;99.90;;;;;;4998966;28;20030;-51
2021/12/25 12:09:13;;;;;;;8.63;4.72;;;8.60;99.90;;;;;;4998409;28;20033;-50
2021/12/25 12:11:41;;;;;;;9.93;5.18;;;8.60;99.90;;;;;;5000277;28;20026;-50
2021/12/25 12:14:28;;;;;;;10.07;4.72;;;8.60;99.90;;;;;;4999866;28;20061;-50
2021/12/25 12:16:56;;;;;;;13.02;4.80;;;8.70;99.90;;;;;;4999357;28;20052;-50
2021/12/25 12:19:37;;;;;;;12.98;5.88;;;8.70;99.90;;;;;;5004058;28;20029;-50
2021/12/25 12:27:34;;;;;;;9.35;3.85;;;8.70;99.90;;;;;;5004525;28;20030;-50
2021/12/25 12:29:59;;;;;;;13.02;5.13;;;8.60;99.90;;;;;;5002702;28;20034;-50
2021/12/25 12:32:44;;;;;;;7.20;4.65;;;8.70;99.90;;;;;;5003474;28;20463;-50
2021/12/25 12:35:39;;;;;;;10.02;4.50;;;8.70;99.90;;;;;;5004058;28;20358;-50
2021/12/25 12:38:37;;;;;;;12.80;5.03;;;8.70;99.90;;;;;;5002904;28;20463;-50
2021/12/25 12:41:25;;;;;;;12.10;5.18;;;8.70;99.90;;;;;;5008242;28;20087;-50
2021/12/25 12:44:11;;;;;;;11.18;4.80;;;8.70;99.90;;;;;;5011033;28;20061;-50
2021/12/25 12:46:50;;;;;;;12.23;5.60;;;8.70;99.90;;;;;;5012521;28;20045;-50
2021/12/25 12:49:29;;;;;;;9.10;5.00;;;8.70;99.90;;;;;;5003742;28;20034;-50
2021/12/25 12:52:15;;;;;;;9.35;5.00;;;8.70;99.90;;;;;;4998461;28;20023;-50
2021/12/25 12:54:51;;;;;;;13.60;5.53;;;8.70;99.90;;;;;;5003264;28;20386;-50
2021/12/25 12:57:25;;;;;;;10.50;5.38;;;8.70;99.90;;;;;;5002225;28;20030;-50
2021/12/25 12:59:52;;;;;;;12.32;4.30;;;8.70;99.90;;;;;;5003683;28;20093;-50
2021/12/25 13:02:24;;;;;;;9.70;5.05;;;8.70;99.90;;;;;;5001845;28;20491;-50
2021/12/25 13:04:57;;;;;;;11.18;4.55;;;8.70;99.90;;;;;;5004685;28;20026;-50
2021/12/25 13:07:23;;;;;;;10.95;5.82;;;8.70;99.90;;;;;;5002345;28;20057;-50
2021/12/25 13:10:21;;;;;;;13.48;4.85;;;8.70;99.90;;;;;;5004138;28;20038;-50
2021/12/25 13:12:49;;;;;;;8.43;4.32;;;8.70;99.90;;;;;;5003184;28;20100;-51
2021/12/25 13:15:25;;;;;;;13.60;4.05;;;8.70;99.90;;;;;;5004664;28;20036;-50
2021/12/25 13:17:57;;;;;;;9.63;4.07;;;8.70;99.90;;;;;;5003002;28;20092;-50
2021/12/25 13:20:39;;;;;;;10.98;4.40;;;8.70;99.90;;;;;;5002797;28;20101;-51
2021/12/25 13:23:20;;;;;;;8.82;4.80;;;8.70;99.90;;;;;;4999134;28;20038;-50
2021/12/25 13:25:58;;;;;;;9.32;4.53;;;8.70;99.90;;;;;;5002722;28;20034;-51
2021/12/25 13:28:29;;;;;;;12.32;4.80;;;8.70;99.90;;;;;;5003660;28;20361;-51
2021/12/25 13:30:59;;;;;;;11.43;5.65;;;8.70;99.90;;;;;;5002019;28;20054;-50
2021/12/25 13:33:27;;;;;;;13.70;5.22;;;8.70;99.90;;;;;;5002231;28;20042;-50
2021/12/25 13:36:08;;;;;;;15.73;6.25;;;8.80;99.90;;;;;;5005209;28;20026;-51
2021/12/25 13:38:55;;;;;;;11.70;6.22;;;8.70;99.90;;;;;;5001436;28;20092;-50
2021/12/25 13:41:35;;;;;;;11.77;5.15;;;8.70;99.90;;;;;;5004154;28;20026;-50
2021/12/25 13:44:24;;;;;;;;;;;8.70;99.90;;;;;;5003435;28;20065;-50
2021/12/25 13:47:00;;;;;;;11.02;5.68;;;8.70;99.90;;;;;;5001260;28;19905;-50
2021/12/25 13:49:50;;;;;;;16.23;5.45;;;8.70;99.90;;;;;;5001683;28;20062;-50
2021/12/25 13:52:19;;;;;;;13.10;6.55;;;8.70;99.90;;;;;;5000942;28;20044;-50
2021/12/25 13:54:56;;;;;;;11.68;6.25;;;8.70;99.90;;;;;;5005696;28;20524;-50
2021/12/25 13:57:24;;;;;;;12.32;6.45;;;8.70;99.90;;;;;;5002381;28;20042;-50
2021/12/25 13:59:51;;;;;;;14.57;6.00;;;8.70;99.90;;;;;;5001683;28;20041;-50
2021/12/25 14:02:18;;;;;;;11.15;6.10;;;8.70;99.90;;;;;;5000506;28;20528;-50
2021/12/25 14:04:46;;;;;;;10.90;5.88;;;8.70;99.90;;;;;;5002521;28;20031;-50
2021/12/25 14:07:15;;;;;;;14.45;6.05;;;8.70;99.90;;;;;;5002220;28;20073;-50
2021/12/25 14:09:59;;;;;;;14.55;8.23;;;8.70;99.90;;;;;;5003392;28;20025;-50
2021/12/25 14:12:27;;;;;;;17.70;7.70;;;8.70;99.90;;;;;;5002115;28;20118;-50
2021/12/25 14:14:54;;;;;;;27.30;11.55;;;8.70;99.90;;;;;;5001300;28;20031;-50
2021/12/25 14:17:20;;;;;;;14.25;5.90;;;8.70;99.90;;;;;;5006719;28;20440;-50
2021/12/25 14:19:46;;;;;;;14.43;5.65;;;8.70;99.90;;;;;;5003021;28;20033;-50
2021/12/25 14:22:11;;;;;;;12.63;6.20;;;8.80;99.90;;;;;;4999586;28;20110;-50
2021/12/25 14:24:45;;;;;;;12.02;4.38;;;8.70;99.90;;;;;;5002201;28;20022;-50
2021/12/25 14:27:18;;;;;;;8.15;4.10;;;8.70;99.90;;;;;;5000042;28;20465;-50
2021/12/25 14:29:44;;;;;;;12.30;5.25;;;8.70;99.90;;;;;;5002048;28;20022;-50